sensor_id;sensor_type;location;lat;lon;timestamp;P1;durP1;ratioP1;P2;durP2;ratioP2
28926;SDS011;16038;47.692;9.400;2023-06-22T00:01:47;18.58;;;6.30;;
28926;SDS011;16038;47.692;9.400;2023-06-22T00:04:12;19.38;;;6.13;;
28926;SDS011;16038;47.692;9.400;2023-06-22T00:06:37;18.27;;;6.22;;
28926;SDS011;16038;47.692;9.400;2023-06-22T00:09:03;19.97;;;7.00;;
28926;SDS011;16038;47.692;9.400;2023-06-22T00:11:28;14.95;;;6.13;;
28926;SDS011;16038;47.692;9.400;2023-06-22T00:13:54;16.42;;;5.28;;
28926;SDS011;16038;47.692;9.400;2023-06-22T00:16:19;16.35;;;5.72;;
28926;SDS011;16038;47.692;9.400;2023-06-22T00:18:44;12.55;;;5.60;;
28926;SDS011;16038;47.692;9.400;2023-06-22T00:21:12;17.58;;;6.00;;
28926;SDS011;16038;47.692;9.400;2023-06-22T00:23:38;20.00;;;5.85;;
28926;SDS011;16038;47.692;9.400;2023-06-22T00:26:03;15.15;;;5.13;;
28926;SDS011;16038;47.692;9.400;2023-06-22T00:28:29;19.17;;;5.80;;
28926;SDS011;16038;47.692;9.400;2023-06-22T00:30:54;15.43;;;5.80;;
28926;SDS011;16038;47.692;9.400;2023-06-22T00:33:19;17.42;;;6.03;;
28926;SDS011;16038;47.692;9.400;2023-06-22T00:35:45;13.75;;;5.82;;
28926;SDS011;16038;47.692;9.400;2023-06-22T00:38:10;18.58;;;6.38;;
28926;SDS011;16038;47.692;9.400;2023-06-22T00:40:36;17.52;;;6.00;;
28926;SDS011;16038;47.692;9.400;2023-06-22T00:43:02;14.95;;;5.72;;
28926;SDS011;16038;47.692;9.400;2023-06-22T00:45:27;14.85;;;6.10;;
28926;SDS011;16038;47.692;9.400;2023-06-22T00:47:53;16.13;;;6.13;;
28926;SDS011;16038;47.692;9.400;2023-06-22T00:50:22;18.40;;;6.18;;
28926;SDS011;16038;47.692;9.400;2023-06-22T00:52:52;21.65;;;6.32;;
28926;SDS011;16038;47.692;9.400;2023-06-22T00:55:22;18.95;;;6.80;;
28926;SDS011;16038;47.692;9.400;2023-06-22T00:57:48;17.55;;;6.95;;
28926;SDS011;16038;47.692;9.400;2023-06-22T01:00:14;14.43;;;6.53;;
28926;SDS011;16038;47.692;9.400;2023-06-22T01:02:44;20.35;;;6.28;;
28926;SDS011;16038;47.692;9.400;2023-06-22T01:05:11;16.10;;;6.50;;
28926;SDS011;16038;47.692;9.400;2023-06-22T01:13:07;14.93;;;5.75;;
28926;SDS011;16038;47.692;9.400;2023-06-22T01:15:44;17.88;;;6.03;;
28926;SDS011;16038;47.692;9.400;2023-06-22T01:18:14;17.65;;;6.20;;
28926;SDS011;16038;47.692;9.400;2023-06-22T01:20:43;16.57;;;6.10;;
28926;SDS011;16038;47.692;9.400;2023-06-22T01:26:08;19.48;;;6.45;;
28926;SDS011;16038;47.692;9.400;2023-06-22T01:28:49;17.55;;;6.53;;
28926;SDS011;16038;47.692;9.400;2023-06-22T01:31:18;17.55;;;6.68;;
28926;SDS011;16038;47.692;9.400;2023-06-22T01:33:50;17.60;;;6.55;;
28926;SDS011;16038;47.692;9.400;2023-06-22T01:36:18;15.77;;;6.35;;
28926;SDS011;16038;47.692;9.400;2023-06-22T01:38:44;16.45;;;6.30;;
28926;SDS011;16038;47.692;9.400;2023-06-22T01:41:12;18.58;;;6.45;;
28926;SDS011;16038;47.692;9.400;2023-06-22T01:43:37;16.55;;;6.75;;
28926;SDS011;16038;47.692;9.400;2023-06-22T01:46:04;19.15;;;6.40;;
28926;SDS011;16038;47.692;9.400;2023-06-22T01:48:29;16.80;;;6.32;;
28926;SDS011;16038;47.692;9.400;2023-06-22T01:50:55;21.15;;;7.50;;
28926;SDS011;16038;47.692;9.400;2023-06-22T01:53:24;15.90;;;7.03;;
28926;SDS011;16038;47.692;9.400;2023-06-22T01:55:50;17.30;;;6.20;;
28926;SDS011;16038;47.692;9.400;2023-06-22T01:58:15;19.90;;;6.80;;
28926;SDS011;16038;47.692;9.400;2023-06-22T02:00:44;22.80;;;7.03;;
28926;SDS011;16038;47.692;9.400;2023-06-22T02:03:22;16.75;;;6.50;;
28926;SDS011;16038;47.692;9.400;2023-06-22T02:06:04;15.00;;;6.43;;
28926;SDS011;16038;47.692;9.400;2023-06-22T02:08:38;18.23;;;6.28;;
28926;SDS011;16038;47.692;9.400;2023-06-22T02:11:07;16.00;;;6.82;;
28926;SDS011;16038;47.692;9.400;2023-06-22T02:13:34;13.68;;;6.70;;
28926;SDS011;16038;47.692;9.400;2023-06-22T02:16:02;15.27;;;6.20;;
28926;SDS011;16038;47.692;9.400;2023-06-22T02:18:28;17.90;;;6.35;;
28926;SDS011;16038;47.692;9.400;2023-06-22T02:20:54;19.85;;;7.43;;
28926;SDS011;16038;47.692;9.400;2023-06-22T02:23:19;19.58;;;7.00;;
28926;SDS011;16038;47.692;9.400;2023-06-22T02:25:45;16.17;;;7.07;;
28926;SDS011;16038;47.692;9.400;2023-06-22T02:28:10;13.30;;;6.70;;
28926;SDS011;16038;47.692;9.400;2023-06-22T02:30:35;19.60;;;7.68;;
28926;SDS011;16038;47.692;9.400;2023-06-22T02:33:01;17.58;;;6.35;;
28926;SDS011;16038;47.692;9.400;2023-06-22T02:35:27;18.73;;;7.15;;
28926;SDS011;16038;47.692;9.400;2023-06-22T02:37:59;15.35;;;6.80;;
28926;SDS011;16038;47.692;9.400;2023-06-22T02:40:25;16.35;;;7.05;;
28926;SDS011;16038;47.692;9.400;2023-06-22T02:42:51;17.20;;;6.68;;
28926;SDS011;16038;47.692;9.400;2023-06-22T02:45:16;17.02;;;6.97;;
28926;SDS011;16038;47.692;9.400;2023-06-22T02:47:42;18.20;;;7.07;;
28926;SDS011;16038;47.692;9.400;2023-06-22T02:50:07;15.30;;;7.38;;
28926;SDS011;16038;47.692;9.400;2023-06-22T02:52:33;15.38;;;7.45;;
28926;SDS011;16038;47.692;9.400;2023-06-22T02:54:59;18.83;;;7.40;;
28926;SDS011;16038;47.692;9.400;2023-06-22T02:57:24;18.65;;;8.25;;
28926;SDS011;16038;47.692;9.400;2023-06-22T02:59:50;18.75;;;7.50;;
28926;SDS011;16038;47.692;9.400;2023-06-22T03:02:15;19.90;;;8.02;;
28926;SDS011;16038;47.692;9.400;2023-06-22T03:04:40;21.02;;;7.95;;
28926;SDS011;16038;47.692;9.400;2023-06-22T03:07:06;13.38;;;7.07;;
28926;SDS011;16038;47.692;9.400;2023-06-22T03:09:31;19.42;;;8.90;;
28926;SDS011;16038;47.692;9.400;2023-06-22T03:11:56;17.35;;;7.88;;
28926;SDS011;16038;47.692;9.400;2023-06-22T03:14:22;20.40;;;10.63;;
28926;SDS011;16038;47.692;9.400;2023-06-22T03:16:47;25.75;;;11.32;;
28926;SDS011;16038;47.692;9.400;2023-06-22T03:19:13;15.73;;;7.80;;
28926;SDS011;16038;47.692;9.400;2023-06-22T03:21:39;17.38;;;7.00;;
28926;SDS011;16038;47.692;9.400;2023-06-22T03:24:05;18.98;;;8.43;;
28926;SDS011;16038;47.692;9.400;2023-06-22T03:26:31;16.77;;;7.75;;
28926;SDS011;16038;47.692;9.400;2023-06-22T03:28:57;18.58;;;8.10;;
28926;SDS011;16038;47.692;9.400;2023-06-22T03:31:22;16.30;;;8.07;;
28926;SDS011;16038;47.692;9.400;2023-06-22T03:33:48;23.48;;;7.93;;
28926;SDS011;16038;47.692;9.400;2023-06-22T03:36:14;21.30;;;8.85;;
28926;SDS011;16038;47.692;9.400;2023-06-22T03:38:47;18.48;;;8.10;;
28926;SDS011;16038;47.692;9.400;2023-06-22T03:41:13;17.20;;;8.48;;
28926;SDS011;16038;47.692;9.400;2023-06-22T03:43:39;16.33;;;7.13;;
28926;SDS011;16038;47.692;9.400;2023-06-22T03:46:05;20.98;;;7.85;;
28926;SDS011;16038;47.692;9.400;2023-06-22T03:48:30;17.27;;;7.85;;
28926;SDS011;16038;47.692;9.400;2023-06-22T03:50:56;15.18;;;7.20;;
28926;SDS011;16038;47.692;9.400;2023-06-22T03:53:21;23.02;;;9.25;;
28926;SDS011;16038;47.692;9.400;2023-06-22T03:55:50;27.85;;;9.30;;
28926;SDS011;16038;47.692;9.400;2023-06-22T03:58:17;16.38;;;8.00;;
28926;SDS011;16038;47.692;9.400;2023-06-22T04:00:47;14.32;;;7.28;;
28926;SDS011;16038;47.692;9.400;2023-06-22T04:03:14;16.10;;;8.05;;
28926;SDS011;16038;47.692;9.400;2023-06-22T04:05:40;22.92;;;8.50;;
28926;SDS011;16038;47.692;9.400;2023-06-22T04:08:06;14.15;;;6.75;;
28926;SDS011;16038;47.692;9.400;2023-06-22T04:10:32;22.90;;;7.10;;
28926;SDS011;16038;47.692;9.400;2023-06-22T04:12:58;20.15;;;7.60;;
28926;SDS011;16038;47.692;9.400;2023-06-22T04:15:24;13.65;;;7.10;;
28926;SDS011;16038;47.692;9.400;2023-06-22T04:17:49;18.33;;;7.75;;
28926;SDS011;16038;47.692;9.400;2023-06-22T04:20:14;11.40;;;6.55;;
28926;SDS011;16038;47.692;9.400;2023-06-22T04:22:40;18.23;;;6.72;;
28926;SDS011;16038;47.692;9.400;2023-06-22T04:25:05;15.45;;;7.25;;
28926;SDS011;16038;47.692;9.400;2023-06-22T04:27:32;19.92;;;6.95;;
28926;SDS011;16038;47.692;9.400;2023-06-22T04:30:02;16.13;;;7.32;;
28926;SDS011;16038;47.692;9.400;2023-06-22T04:32:29;16.52;;;6.90;;
28926;SDS011;16038;47.692;9.400;2023-06-22T04:34:55;14.02;;;6.03;;
28926;SDS011;16038;47.692;9.400;2023-06-22T04:37:21;15.02;;;6.72;;
28926;SDS011;16038;47.692;9.400;2023-06-22T04:39:48;12.93;;;6.90;;
28926;SDS011;16038;47.692;9.400;2023-06-22T04:42:14;18.23;;;8.40;;
28926;SDS011;16038;47.692;9.400;2023-06-22T04:44:39;18.10;;;7.47;;
28926;SDS011;16038;47.692;9.400;2023-06-22T04:47:06;20.38;;;6.63;;
28926;SDS011;16038;47.692;9.400;2023-06-22T04:49:34;16.65;;;7.28;;
28926;SDS011;16038;47.692;9.400;2023-06-22T04:52:06;17.80;;;7.77;;
28926;SDS011;16038;47.692;9.400;2023-06-22T04:54:32;16.63;;;8.20;;
28926;SDS011;16038;47.692;9.400;2023-06-22T04:56:59;18.40;;;8.48;;
28926;SDS011;16038;47.692;9.400;2023-06-22T04:59:26;18.10;;;8.23;;
28926;SDS011;16038;47.692;9.400;2023-06-22T05:01:57;22.73;;;7.93;;
28926;SDS011;16038;47.692;9.400;2023-06-22T05:04:23;13.30;;;7.78;;
28926;SDS011;16038;47.692;9.400;2023-06-22T05:06:49;19.80;;;7.93;;
28926;SDS011;16038;47.692;9.400;2023-06-22T05:09:15;13.35;;;8.05;;
28926;SDS011;16038;47.692;9.400;2023-06-22T05:11:41;18.83;;;8.50;;
28926;SDS011;16038;47.692;9.400;2023-06-22T05:14:06;16.08;;;8.48;;
28926;SDS011;16038;47.692;9.400;2023-06-22T05:16:32;14.95;;;7.60;;
28926;SDS011;16038;47.692;9.400;2023-06-22T05:18:58;21.08;;;7.45;;
28926;SDS011;16038;47.692;9.400;2023-06-22T05:21:25;18.17;;;8.68;;
28926;SDS011;16038;47.692;9.400;2023-06-22T05:23:52;15.40;;;7.65;;
28926;SDS011;16038;47.692;9.400;2023-06-22T05:26:18;17.77;;;8.07;;
28926;SDS011;16038;47.692;9.400;2023-06-22T05:28:45;15.50;;;6.78;;
28926;SDS011;16038;47.692;9.400;2023-06-22T05:31:12;16.48;;;7.07;;
28926;SDS011;16038;47.692;9.400;2023-06-22T05:33:38;18.75;;;7.47;;
28926;SDS011;16038;47.692;9.400;2023-06-22T05:36:04;18.08;;;6.95;;
28926;SDS011;16038;47.692;9.400;2023-06-22T05:38:30;21.15;;;7.00;;
28926;SDS011;16038;47.692;9.400;2023-06-22T05:40:56;21.27;;;7.38;;
28926;SDS011;16038;47.692;9.400;2023-06-22T05:43:21;18.08;;;7.03;;
28926;SDS011;16038;47.692;9.400;2023-06-22T05:45:47;15.93;;;6.68;;
28926;SDS011;16038;47.692;9.400;2023-06-22T05:48:12;15.77;;;7.15;;
28926;SDS011;16038;47.692;9.400;2023-06-22T05:50:38;19.10;;;7.00;;
28926;SDS011;16038;47.692;9.400;2023-06-22T05:53:03;23.02;;;7.05;;
28926;SDS011;16038;47.692;9.400;2023-06-22T05:55:28;18.33;;;7.68;;
28926;SDS011;16038;47.692;9.400;2023-06-22T05:57:54;16.08;;;7.10;;
28926;SDS011;16038;47.692;9.400;2023-06-22T06:00:19;14.82;;;7.40;;
28926;SDS011;16038;47.692;9.400;2023-06-22T06:02:47;24.63;;;11.02;;
28926;SDS011;16038;47.692;9.400;2023-06-22T06:05:14;17.33;;;7.15;;
28926;SDS011;16038;47.692;9.400;2023-06-22T06:07:40;21.35;;;7.20;;
28926;SDS011;16038;47.692;9.400;2023-06-22T06:10:09;18.38;;;6.95;;
28926;SDS011;16038;47.692;9.400;2023-06-22T06:12:35;16.70;;;6.85;;
28926;SDS011;16038;47.692;9.400;2023-06-22T06:15:01;17.00;;;7.55;;
28926;SDS011;16038;47.692;9.400;2023-06-22T06:17:26;21.60;;;8.02;;
28926;SDS011;16038;47.692;9.400;2023-06-22T06:19:52;14.68;;;8.23;;
28926;SDS011;16038;47.692;9.400;2023-06-22T06:22:17;14.35;;;6.93;;
28926;SDS011;16038;47.692;9.400;2023-06-22T06:24:44;18.90;;;7.60;;
28926;SDS011;16038;47.692;9.400;2023-06-22T06:27:10;22.25;;;8.32;;
28926;SDS011;16038;47.692;9.400;2023-06-22T06:29:35;18.48;;;7.97;;
28926;SDS011;16038;47.692;9.400;2023-06-22T06:32:01;14.38;;;7.15;;
28926;SDS011;16038;47.692;9.400;2023-06-22T06:34:26;13.68;;;6.25;;
28926;SDS011;16038;47.692;9.400;2023-06-22T06:36:51;18.13;;;7.60;;
28926;SDS011;16038;47.692;9.400;2023-06-22T06:39:17;15.38;;;8.07;;
28926;SDS011;16038;47.692;9.400;2023-06-22T06:41:42;17.35;;;7.43;;
28926;SDS011;16038;47.692;9.400;2023-06-22T06:44:08;18.40;;;7.95;;
28926;SDS011;16038;47.692;9.400;2023-06-22T06:46:33;21.88;;;7.85;;
28926;SDS011;16038;47.692;9.400;2023-06-22T06:48:58;19.40;;;8.32;;
28926;SDS011;16038;47.692;9.400;2023-06-22T06:51:24;18.25;;;8.35;;
28926;SDS011;16038;47.692;9.400;2023-06-22T06:53:49;19.25;;;7.50;;
28926;SDS011;16038;47.692;9.400;2023-06-22T06:56:15;16.70;;;7.70;;
28926;SDS011;16038;47.692;9.400;2023-06-22T06:58:41;16.05;;;8.38;;
28926;SDS011;16038;47.692;9.400;2023-06-22T07:01:07;17.10;;;7.40;;
28926;SDS011;16038;47.692;9.400;2023-06-22T07:03:33;15.32;;;7.22;;
28926;SDS011;16038;47.692;9.400;2023-06-22T07:05:58;15.15;;;7.40;;
28926;SDS011;16038;47.692;9.400;2023-06-22T07:08:24;20.38;;;6.43;;
28926;SDS011;16038;47.692;9.400;2023-06-22T07:10:49;16.77;;;6.28;;
28926;SDS011;16038;47.692;9.400;2023-06-22T07:13:16;14.43;;;7.05;;
28926;SDS011;16038;47.692;9.400;2023-06-22T07:15:42;17.00;;;7.40;;
28926;SDS011;16038;47.692;9.400;2023-06-22T07:18:07;17.77;;;6.93;;
28926;SDS011;16038;47.692;9.400;2023-06-22T07:20:32;17.92;;;6.38;;
28926;SDS011;16038;47.692;9.400;2023-06-22T07:22:58;13.25;;;5.65;;
28926;SDS011;16038;47.692;9.400;2023-06-22T07:25:23;14.00;;;6.00;;
28926;SDS011;16038;47.692;9.400;2023-06-22T07:28:02;16.73;;;6.65;;
28926;SDS011;16038;47.692;9.400;2023-06-22T07:30:32;16.58;;;6.45;;
28926;SDS011;16038;47.692;9.400;2023-06-22T07:32:58;15.10;;;5.82;;
28926;SDS011;16038;47.692;9.400;2023-06-22T07:35:28;16.23;;;5.78;;
28926;SDS011;16038;47.692;9.400;2023-06-22T07:37:54;15.73;;;6.15;;
28926;SDS011;16038;47.692;9.400;2023-06-22T07:40:20;13.10;;;5.50;;
28926;SDS011;16038;47.692;9.400;2023-06-22T07:42:45;13.00;;;5.78;;
28926;SDS011;16038;47.692;9.400;2023-06-22T07:45:13;16.08;;;5.03;;
28926;SDS011;16038;47.692;9.400;2023-06-22T07:47:38;9.93;;;4.78;;
28926;SDS011;16038;47.692;9.400;2023-06-22T07:50:04;14.95;;;5.80;;
28926;SDS011;16038;47.692;9.400;2023-06-22T07:52:30;11.20;;;5.68;;
28926;SDS011;16038;47.692;9.400;2023-06-22T07:54:56;11.00;;;5.57;;
28926;SDS011;16038;47.692;9.400;2023-06-22T07:57:22;14.00;;;6.05;;
28926;SDS011;16038;47.692;9.400;2023-06-22T07:59:47;10.88;;;5.40;;
28926;SDS011;16038;47.692;9.400;2023-06-22T08:02:13;14.50;;;6.25;;
28926;SDS011;16038;47.692;9.400;2023-06-22T08:04:38;13.45;;;6.07;;
28926;SDS011;16038;47.692;9.400;2023-06-22T08:07:04;18.25;;;7.18;;
28926;SDS011;16038;47.692;9.400;2023-06-22T08:09:31;17.95;;;7.07;;
28926;SDS011;16038;47.692;9.400;2023-06-22T08:11:57;12.43;;;7.13;;
28926;SDS011;16038;47.692;9.400;2023-06-22T08:14:27;12.48;;;6.43;;
28926;SDS011;16038;47.692;9.400;2023-06-22T08:16:53;15.30;;;6.65;;
28926;SDS011;16038;47.692;9.400;2023-06-22T08:19:18;25.38;;;6.88;;
28926;SDS011;16038;47.692;9.400;2023-06-22T08:21:44;13.38;;;6.63;;
28926;SDS011;16038;47.692;9.400;2023-06-22T08:24:09;18.27;;;8.23;;
28926;SDS011;16038;47.692;9.400;2023-06-22T08:26:34;17.83;;;7.40;;
28926;SDS011;16038;47.692;9.400;2023-06-22T08:29:02;12.60;;;8.02;;
28926;SDS011;16038;47.692;9.400;2023-06-22T08:31:29;17.02;;;7.28;;
28926;SDS011;16038;47.692;9.400;2023-06-22T08:33:55;17.05;;;7.13;;
28926;SDS011;16038;47.692;9.400;2023-06-22T08:36:20;13.88;;;7.38;;
28926;SDS011;16038;47.692;9.400;2023-06-22T08:38:46;14.88;;;7.93;;
28926;SDS011;16038;47.692;9.400;2023-06-22T08:41:15;17.58;;;8.10;;
28926;SDS011;16038;47.692;9.400;2023-06-22T08:43:40;19.58;;;7.60;;
28926;SDS011;16038;47.692;9.400;2023-06-22T08:46:06;17.65;;;8.30;;
28926;SDS011;16038;47.692;9.400;2023-06-22T08:48:32;18.20;;;8.18;;
28926;SDS011;16038;47.692;9.400;2023-06-22T08:50:57;16.33;;;7.00;;
28926;SDS011;16038;47.692;9.400;2023-06-22T08:53:22;17.27;;;6.55;;
28926;SDS011;16038;47.692;9.400;2023-06-22T08:55:48;16.70;;;6.68;;
28926;SDS011;16038;47.692;9.400;2023-06-22T08:58:15;14.40;;;7.00;;
28926;SDS011;16038;47.692;9.400;2023-06-22T09:00:41;21.40;;;8.00;;
28926;SDS011;16038;47.692;9.400;2023-06-22T09:03:06;13.80;;;6.38;;
28926;SDS011;16038;47.692;9.400;2023-06-22T09:05:32;13.93;;;6.90;;
28926;SDS011;16038;47.692;9.400;2023-06-22T09:07:57;10.82;;;6.32;;
28926;SDS011;16038;47.692;9.400;2023-06-22T09:10:24;23.45;;;7.60;;
28926;SDS011;16038;47.692;9.400;2023-06-22T09:12:49;14.18;;;6.28;;
28926;SDS011;16038;47.692;9.400;2023-06-22T09:15:15;25.38;;;11.25;;
28926;SDS011;16038;47.692;9.400;2023-06-22T09:17:40;21.00;;;7.88;;
28926;SDS011;16038;47.692;9.400;2023-06-22T09:20:06;16.75;;;8.25;;
28926;SDS011;16038;47.692;9.400;2023-06-22T09:22:35;17.58;;;7.65;;
28926;SDS011;16038;47.692;9.400;2023-06-22T09:25:00;14.57;;;6.95;;
28926;SDS011;16038;47.692;9.400;2023-06-22T09:27:26;21.85;;;8.10;;
28926;SDS011;16038;47.692;9.400;2023-06-22T09:29:52;16.45;;;7.35;;
28926;SDS011;16038;47.692;9.400;2023-06-22T09:32:17;18.92;;;7.65;;
28926;SDS011;16038;47.692;9.400;2023-06-22T09:34:42;14.57;;;6.93;;
28926;SDS011;16038;47.692;9.400;2023-06-22T09:37:08;15.20;;;7.38;;
28926;SDS011;16038;47.692;9.400;2023-06-22T09:39:33;15.43;;;6.68;;
28926;SDS011;16038;47.692;9.400;2023-06-22T09:41:59;18.05;;;6.95;;
28926;SDS011;16038;47.692;9.400;2023-06-22T09:44:25;15.07;;;6.50;;
28926;SDS011;16038;47.692;9.400;2023-06-22T09:46:50;17.50;;;6.47;;
28926;SDS011;16038;47.692;9.400;2023-06-22T09:49:16;16.17;;;6.32;;
28926;SDS011;16038;47.692;9.400;2023-06-22T09:51:41;14.57;;;6.65;;
28926;SDS011;16038;47.692;9.400;2023-06-22T09:54:07;14.95;;;6.28;;
28926;SDS011;16038;47.692;9.400;2023-06-22T09:56:32;14.75;;;6.18;;
28926;SDS011;16038;47.692;9.400;2023-06-22T09:58:57;14.98;;;6.60;;
28926;SDS011;16038;47.692;9.400;2023-06-22T10:01:23;13.75;;;6.13;;
28926;SDS011;16038;47.692;9.400;2023-06-22T10:03:49;16.00;;;8.10;;
28926;SDS011;16038;47.692;9.400;2023-06-22T10:06:19;17.27;;;6.70;;
28926;SDS011;16038;47.692;9.400;2023-06-22T10:08:45;15.35;;;7.28;;
28926;SDS011;16038;47.692;9.400;2023-06-22T10:11:10;19.73;;;6.90;;
28926;SDS011;16038;47.692;9.400;2023-06-22T10:13:35;18.05;;;7.00;;
28926;SDS011;16038;47.692;9.400;2023-06-22T10:16:01;17.40;;;6.60;;
28926;SDS011;16038;47.692;9.400;2023-06-22T10:18:27;18.17;;;6.50;;
28926;SDS011;16038;47.692;9.400;2023-06-22T10:20:52;13.85;;;6.40;;
28926;SDS011;16038;47.692;9.400;2023-06-22T10:23:18;18.48;;;6.93;;
28926;SDS011;16038;47.692;9.400;2023-06-22T10:25:45;18.77;;;7.75;;
28926;SDS011;16038;47.692;9.400;2023-06-22T10:28:10;15.57;;;6.60;;
28926;SDS011;16038;47.692;9.400;2023-06-22T10:30:36;19.52;;;6.82;;
28926;SDS011;16038;47.692;9.400;2023-06-22T10:33:04;16.85;;;7.00;;
28926;SDS011;16038;47.692;9.400;2023-06-22T10:35:29;14.73;;;6.35;;
28926;SDS011;16038;47.692;9.400;2023-06-22T10:37:55;18.35;;;7.43;;
28926;SDS011;16038;47.692;9.400;2023-06-22T10:40:21;20.23;;;6.55;;
28926;SDS011;16038;47.692;9.400;2023-06-22T10:42:46;20.02;;;7.80;;
28926;SDS011;16038;47.692;9.400;2023-06-22T10:45:12;15.90;;;5.90;;
28926;SDS011;16038;47.692;9.400;2023-06-22T10:47:37;17.55;;;6.63;;
28926;SDS011;16038;47.692;9.400;2023-06-22T10:50:03;17.33;;;6.38;;
28926;SDS011;16038;47.692;9.400;2023-06-22T10:52:29;14.10;;;6.95;;
28926;SDS011;16038;47.692;9.400;2023-06-22T10:54:55;18.85;;;7.40;;
28926;SDS011;16038;47.692;9.400;2023-06-22T10:57:21;14.13;;;6.30;;
28926;SDS011;16038;47.692;9.400;2023-06-22T10:59:47;15.48;;;6.00;;
28926;SDS011;16038;47.692;9.400;2023-06-22T11:02:12;20.90;;;6.25;;
28926;SDS011;16038;47.692;9.400;2023-06-22T11:04:38;14.63;;;6.45;;
28926;SDS011;16038;47.692;9.400;2023-06-22T11:07:03;17.60;;;7.03;;
28926;SDS011;16038;47.692;9.400;2023-06-22T11:09:29;15.75;;;7.03;;
28926;SDS011;16038;47.692;9.400;2023-06-22T11:11:55;23.27;;;6.95;;
28926;SDS011;16038;47.692;9.400;2023-06-22T11:14:21;18.90;;;9.10;;
28926;SDS011;16038;47.692;9.400;2023-06-22T11:16:47;18.17;;;6.22;;
28926;SDS011;16038;47.692;9.400;2023-06-22T11:19:13;20.42;;;6.90;;
28926;SDS011;16038;47.692;9.400;2023-06-22T11:21:38;13.90;;;6.10;;
28926;SDS011;16038;47.692;9.400;2023-06-22T11:24:04;21.60;;;6.68;;
28926;SDS011;16038;47.692;9.400;2023-06-22T11:26:30;19.05;;;5.80;;
28926;SDS011;16038;47.692;9.400;2023-06-22T11:28:56;17.05;;;5.93;;
28926;SDS011;16038;47.692;9.400;2023-06-22T11:31:22;18.00;;;6.85;;
28926;SDS011;16038;47.692;9.400;2023-06-22T11:33:47;20.23;;;6.68;;
28926;SDS011;16038;47.692;9.400;2023-06-22T11:36:13;16.65;;;6.70;;
28926;SDS011;16038;47.692;9.400;2023-06-22T11:38:39;19.85;;;6.90;;
28926;SDS011;16038;47.692;9.400;2023-06-22T11:41:06;17.42;;;7.22;;
28926;SDS011;16038;47.692;9.400;2023-06-22T11:43:31;15.38;;;6.15;;
28926;SDS011;16038;47.692;9.400;2023-06-22T11:45:57;18.63;;;6.50;;
28926;SDS011;16038;47.692;9.400;2023-06-22T11:48:23;11.25;;;5.22;;
28926;SDS011;16038;47.692;9.400;2023-06-22T11:50:49;21.27;;;5.90;;
28926;SDS011;16038;47.692;9.400;2023-06-22T11:53:15;11.85;;;5.40;;
28926;SDS011;16038;47.692;9.400;2023-06-22T11:55:42;13.68;;;6.10;;
28926;SDS011;16038;47.692;9.400;2023-06-22T11:58:07;17.00;;;6.05;;
28926;SDS011;16038;47.692;9.400;2023-06-22T12:00:33;13.25;;;5.93;;
28926;SDS011;16038;47.692;9.400;2023-06-22T12:02:58;13.23;;;5.47;;
28926;SDS011;16038;47.692;9.400;2023-06-22T12:05:24;20.80;;;6.38;;
28926;SDS011;16038;47.692;9.400;2023-06-22T12:07:50;16.35;;;6.35;;
28926;SDS011;16038;47.692;9.400;2023-06-22T12:10:17;16.55;;;6.97;;
28926;SDS011;16038;47.692;9.400;2023-06-22T12:12:43;17.20;;;6.10;;
28926;SDS011;16038;47.692;9.400;2023-06-22T12:15:09;15.50;;;6.22;;
28926;SDS011;16038;47.692;9.400;2023-06-22T12:17:35;22.42;;;9.35;;
28926;SDS011;16038;47.692;9.400;2023-06-22T12:20:00;18.88;;;6.18;;
28926;SDS011;16038;47.692;9.400;2023-06-22T12:22:27;17.27;;;7.03;;
28926;SDS011;16038;47.692;9.400;2023-06-22T12:24:53;15.38;;;6.93;;
28926;SDS011;16038;47.692;9.400;2023-06-22T12:27:18;23.45;;;6.88;;
28926;SDS011;16038;47.692;9.400;2023-06-22T12:29:46;17.20;;;7.05;;
28926;SDS011;16038;47.692;9.400;2023-06-22T12:32:12;15.70;;;6.60;;
28926;SDS011;16038;47.692;9.400;2023-06-22T12:34:38;18.05;;;7.05;;
28926;SDS011;16038;47.692;9.400;2023-06-22T12:37:04;15.45;;;6.32;;
28926;SDS011;16038;47.692;9.400;2023-06-22T12:39:31;21.65;;;7.63;;
28926;SDS011;16038;47.692;9.400;2023-06-22T12:41:57;19.48;;;6.93;;
28926;SDS011;16038;47.692;9.400;2023-06-22T12:44:22;16.58;;;7.20;;
28926;SDS011;16038;47.692;9.400;2023-06-22T12:46:48;21.42;;;7.05;;
28926;SDS011;16038;47.692;9.400;2023-06-22T12:49:13;21.30;;;6.30;;
28926;SDS011;16038;47.692;9.400;2023-06-22T12:51:42;14.98;;;6.35;;
28926;SDS011;16038;47.692;9.400;2023-06-22T12:54:08;19.38;;;6.88;;
28926;SDS011;16038;47.692;9.400;2023-06-22T12:56:34;14.80;;;6.43;;
28926;SDS011;16038;47.692;9.400;2023-06-22T12:59:00;18.33;;;6.40;;
28926;SDS011;16038;47.692;9.400;2023-06-22T13:01:28;20.95;;;6.88;;
28926;SDS011;16038;47.692;9.400;2023-06-22T13:03:53;16.85;;;6.05;;
28926;SDS011;16038;47.692;9.400;2023-06-22T13:06:19;16.58;;;5.78;;
28926;SDS011;16038;47.692;9.400;2023-06-22T13:08:44;16.77;;;6.80;;
28926;SDS011;16038;47.692;9.400;2023-06-22T13:11:10;16.90;;;6.25;;
28926;SDS011;16038;47.692;9.400;2023-06-22T13:13:35;20.30;;;6.75;;
28926;SDS011;16038;47.692;9.400;2023-06-22T13:16:01;23.48;;;6.60;;
28926;SDS011;16038;47.692;9.400;2023-06-22T13:18:26;15.18;;;6.32;;
28926;SDS011;16038;47.692;9.400;2023-06-22T13:20:52;21.08;;;6.55;;
28926;SDS011;16038;47.692;9.400;2023-06-22T13:23:19;15.32;;;7.10;;
28926;SDS011;16038;47.692;9.400;2023-06-22T13:25:47;17.20;;;7.13;;
28926;SDS011;16038;47.692;9.400;2023-06-22T13:28:13;17.40;;;6.95;;
28926;SDS011;16038;47.692;9.400;2023-06-22T13:30:40;12.52;;;6.28;;
28926;SDS011;16038;47.692;9.400;2023-06-22T13:33:08;19.23;;;6.40;;
28926;SDS011;16038;47.692;9.400;2023-06-22T13:35:34;19.63;;;6.25;;
28926;SDS011;16038;47.692;9.400;2023-06-22T13:38:03;19.63;;;6.27;;
28926;SDS011;16038;47.692;9.400;2023-06-22T13:40:28;21.00;;;6.82;;
28926;SDS011;16038;47.692;9.400;2023-06-22T13:42:53;15.15;;;6.88;;
28926;SDS011;16038;47.692;9.400;2023-06-22T13:45:19;16.27;;;6.30;;
28926;SDS011;16038;47.692;9.400;2023-06-22T13:47:45;16.45;;;6.38;;
28926;SDS011;16038;47.692;9.400;2023-06-22T13:50:10;19.50;;;9.75;;
28926;SDS011;16038;47.692;9.400;2023-06-22T13:52:37;20.25;;;8.93;;
28926;SDS011;16038;47.692;9.400;2023-06-22T13:55:03;18.73;;;9.07;;
28926;SDS011;16038;47.692;9.400;2023-06-22T13:57:30;17.48;;;8.73;;
28926;SDS011;16038;47.692;9.400;2023-06-22T13:59:55;18.13;;;7.35;;
28926;SDS011;16038;47.692;9.400;2023-06-22T14:02:20;19.45;;;6.70;;
28926;SDS011;16038;47.692;9.400;2023-06-22T14:04:46;27.25;;;11.05;;
28926;SDS011;16038;47.692;9.400;2023-06-22T14:07:11;21.70;;;11.02;;
28926;SDS011;16038;47.692;9.400;2023-06-22T14:09:37;20.77;;;8.85;;
28926;SDS011;16038;47.692;9.400;2023-06-22T14:12:02;18.35;;;8.80;;
28926;SDS011;16038;47.692;9.400;2023-06-22T14:14:30;21.42;;;7.75;;
28926;SDS011;16038;47.692;9.400;2023-06-22T14:16:56;20.50;;;8.23;;
28926;SDS011;16038;47.692;9.400;2023-06-22T14:19:21;21.67;;;8.02;;
28926;SDS011;16038;47.692;9.400;2023-06-22T14:21:46;17.33;;;7.97;;
28926;SDS011;16038;47.692;9.400;2023-06-22T14:24:12;35.25;;;10.65;;
28926;SDS011;16038;47.692;9.400;2023-06-22T14:26:37;21.67;;;11.05;;
28926;SDS011;16038;47.692;9.400;2023-06-22T14:29:03;27.88;;;10.82;;
28926;SDS011;16038;47.692;9.400;2023-06-22T14:31:29;24.40;;;9.90;;
28926;SDS011;16038;47.692;9.400;2023-06-22T14:33:54;21.42;;;9.63;;
28926;SDS011;16038;47.692;9.400;2023-06-22T14:36:19;19.20;;;8.90;;